Back to Top

Language: 

My Weather Underground Personal Weather Station Historical Data with Graphs...

Delerius Weather Station Historical Data
Daily Summary for January 4, 2017 Units:  English    Metric   Both
« Previous Day
Next Day »
Daily Weekly Monthly Yearly Custom
  High: Low: Average:
Temperature: 45.6 °F 35.7 °F 42 °F
Dew Point: 43.3 °F 28.6 °F 35 °F
Humidity: 92 % 57 % 77 %
Wind Speed: 16.0 mph 1.0 mph 6.7 mph
Wind Gust: 29.0 mph - -
Wind:- - West
Pressure: 30.46 in 30.15 in -
Precipitation: 0.00 in    
Historical Graphs
 
 
Tabular Data for January 4, 2017
Time Temperature Dew Point Pressure Wind Wind Speed Wind Gust Humidity Rainfall Rate (Hourly) solar Conditions
00:00 45.4 °F 42.1 °F 30.17 in NW 15.0 mph 15.0 mph 88 % 0.00 in 0 W/m2
00:05 45.4 °F 42.1 °F 30.17 in West 16.0 mph 16.0 mph 88 % 0.00 in 0 W/m2
00:15 45.4 °F 42.1 °F 30.17 in WNW 14.0 mph 15.0 mph 88 % 0.00 in 0 W/m2
00:20 45.4 °F 42.1 °F 30.17 in WNW 14.0 mph 14.0 mph 88 % 0.00 in 0 W/m2
00:25 45.4 °F 42.1 °F 30.17 in WNW 13.0 mph 14.0 mph 88 % 0.00 in 0 W/m2
00:35 45.4 °F 42.1 °F 30.16 in NW 14.0 mph 16.0 mph 88 % 0.00 in 0 W/m2
00:40 45.4 °F 42.1 °F 30.16 in West 15.0 mph 15.0 mph 88 % 0.00 in 0 W/m2
00:45 45.3 °F 42.0 °F 30.16 in NW 16.0 mph 16.0 mph 88 % 0.00 in 0 W/m2
00:50 45.2 °F 41.9 °F 30.16 in NW 14.0 mph 14.0 mph 88 % 0.00 in 0 W/m2
00:55 45.1 °F 42.1 °F 30.16 in West 13.0 mph 23.0 mph 89 % 0.00 in 0 W/m2
01:00 45.0 °F 42.0 °F 30.16 in WNW 14.0 mph 14.0 mph 89 % 0.00 in 0 W/m2
01:10 44.8 °F 41.8 °F 30.16 in West 13.0 mph 13.0 mph 89 % 0.00 in 0 W/m2
01:15 44.7 °F 41.7 °F 30.16 in West 14.0 mph 16.0 mph 89 % 0.00 in 0 W/m2
01:20 44.7 °F 41.7 °F 30.16 in WNW 13.0 mph 29.0 mph 89 % 0.00 in 0 W/m2
01:25 44.6 °F 41.8 °F 30.16 in WNW 12.0 mph 29.0 mph 90 % 0.00 in 0 W/m2
01:30 44.7 °F 41.9 °F 30.16 in WNW 13.0 mph 13.0 mph 90 % 0.00 in 0 W/m2
01:35 44.8 °F 42.0 °F 30.17 in WNW 14.0 mph 14.0 mph 90 % 0.00 in 0 W/m2
01:45 44.9 °F 42.1 °F 30.17 in West 12.0 mph 16.0 mph 90 % 0.00 in 0 W/m2
01:50 45.0 °F 42.2 °F 30.17 in NW 12.0 mph 12.0 mph 90 % 0.00 in 0 W/m2
01:55 45.0 °F 42.2 °F 30.16 in West 12.0 mph 13.0 mph 90 % 0.00 in 0 W/m2
02:00 45.1 °F 42.3 °F 30.16 in WNW 11.0 mph 11.0 mph 90 % 0.00 in 0 W/m2
02:05 45.1 °F 42.3 °F 30.16 in NW 12.0 mph 12.0 mph 90 % 0.00 in 0 W/m2
02:10 45.2 °F 42.4 °F 30.16 in WNW 12.0 mph 29.0 mph 90 % 0.00 in 0 W/m2
02:15 45.2 °F 42.4 °F 30.17 in WNW 11.0 mph 29.0 mph 90 % 0.00 in 0 W/m2
02:25 45.3 °F 42.5 °F 30.17 in WNW 11.0 mph 29.0 mph 90 % 0.00 in 0 W/m2
02:30 45.3 °F 42.5 °F 30.17 in WNW 11.0 mph 29.0 mph 90 % 0.00 in 0 W/m2
02:35 45.4 °F 42.6 °F 30.17 in NW 10.0 mph 29.0 mph 90 % 0.00 in 0 W/m2
02:40 45.5 °F 42.7 °F 30.17 in WNW 10.0 mph 10.0 mph 90 % 0.00 in 0 W/m2
02:45 45.5 °F 42.7 °F 30.17 in NW 11.0 mph 12.0 mph 90 % 0.00 in 0 W/m2
02:55 45.6 °F 42.8 °F 30.17 in NW 12.0 mph 29.0 mph 90 % 0.00 in 0 W/m2
03:00 45.6 °F 42.8 °F 30.17 in NW 10.0 mph 10.0 mph 90 % 0.00 in 0 W/m2
03:05 45.6 °F 42.8 °F 30.17 in WNW 9.0 mph 29.0 mph 90 % 0.00 in 0 W/m2
03:10 45.6 °F 42.8 °F 30.16 in WNW 11.0 mph 29.0 mph 90 % 0.00 in 0 W/m2
03:15 45.6 °F 42.8 °F 30.16 in NW 11.0 mph 29.0 mph 90 % 0.00 in 0 W/m2
03:25 45.6 °F 43.1 °F 30.17 in WNW 8.0 mph 29.0 mph 91 % 0.00 in 0 W/m2
03:30 45.6 °F 43.1 °F 30.17 in West 9.0 mph 9.0 mph 91 % 0.00 in 0 W/m2
03:35 45.6 °F 43.1 °F 30.17 in WNW 9.0 mph 29.0 mph 91 % 0.00 in 0 W/m2
03:40 45.6 °F 43.1 °F 30.17 in West 8.0 mph 29.0 mph 91 % 0.00 in 0 W/m2
03:45 45.5 °F 43.0 °F 30.17 in WNW 9.0 mph 29.0 mph 91 % 0.00 in 0 W/m2
03:50 45.5 °F 43.3 °F 30.16 in WNW 8.0 mph 29.0 mph 92 % 0.00 in 0 W/m2
04:00 45.4 °F 43.2 °F 30.16 in West 9.0 mph 29.0 mph 92 % 0.00 in 0 W/m2
04:05 45.4 °F 43.2 °F 30.16 in WNW 8.0 mph 29.0 mph 92 % 0.00 in 0 W/m2
04:10 45.3 °F 43.1 °F 30.16 in West 8.0 mph 29.0 mph 92 % 0.00 in 0 W/m2
04:15 45.3 °F 43.1 °F 30.15 in West 9.0 mph 29.0 mph 92 % 0.00 in 0 W/m2
04:25 45.1 °F 42.9 °F 30.15 in West 9.0 mph 29.0 mph 92 % 0.00 in 0 W/m2
04:30 45.0 °F 42.5 °F 30.15 in WNW 9.0 mph 9.0 mph 91 % 0.00 in 0 W/m2
04:35 44.9 °F 42.7 °F 30.15 in WNW 8.0 mph 11.0 mph 92 % 0.00 in 0 W/m2
04:40 44.8 °F 42.3 °F 30.15 in WNW 9.0 mph 9.0 mph 91 % 0.00 in 0 W/m2
04:50 44.7 °F 42.2 °F 30.15 in West 8.0 mph 8.0 mph 91 % 0.00 in 0 W/m2
04:55 44.6 °F 42.1 °F 30.15 in WNW 7.0 mph 29.0 mph 91 % 0.00 in 0 W/m2
05:00 44.5 °F 42.0 °F 30.15 in WNW 8.0 mph 29.0 mph 91 % 0.00 in 0 W/m2
05:05 44.4 °F 41.9 °F 30.15 in WNW 8.0 mph 29.0 mph 91 % 0.00 in 0 W/m2
05:10 44.4 °F 41.9 °F 30.15 in NW 8.0 mph 8.0 mph 91 % 0.00 in 0 W/m2
05:15 44.3 °F 41.8 °F 30.15 in NW 8.0 mph 9.0 mph 91 % 0.00 in 0 W/m2
05:25 44.4 °F 41.9 °F 30.16 in WNW 9.0 mph 29.0 mph 91 % 0.00 in 0 W/m2
05:35 44.7 °F 42.2 °F 30.16 in NW 10.0 mph 29.0 mph 91 % 0.00 in 0 W/m2
05:40 44.7 °F 42.2 °F 30.16 in WNW 10.0 mph 10.0 mph 91 % 0.00 in 0 W/m2
05:45 44.7 °F 41.9 °F 30.16 in NW 9.0 mph 29.0 mph 90 % 0.00 in 0 W/m2
05:50 44.8 °F 42.0 °F 30.16 in NW 10.0 mph 29.0 mph 90 % 0.00 in 0 W/m2
06:00 44.7 °F 41.9 °F 30.16 in NW 9.0 mph 9.0 mph 90 % 0.00 in 0 W/m2
06:05 44.7 °F 41.9 °F 30.16 in WNW 9.0 mph 29.0 mph 90 % 0.00 in 0 W/m2
06:10 44.7 °F 41.9 °F 30.17 in NW 9.0 mph 9.0 mph 90 % 0.00 in 0 W/m2
06:15 44.7 °F 41.9 °F 30.17 in WNW 8.0 mph 10.0 mph 90 % 0.00 in 0 W/m2
06:20 44.6 °F 41.8 °F 30.17 in NW 8.0 mph 29.0 mph 90 % 0.00 in 0 W/m2
06:25 44.6 °F 41.8 °F 30.17 in NW 9.0 mph 29.0 mph 90 % 0.00 in 0 W/m2
06:30 44.5 °F 41.7 °F 30.17 in NW 10.0 mph 10.0 mph 90 % 0.00 in 0 W/m2
06:40 44.5 °F 41.5 °F 30.18 in NW 9.0 mph 29.0 mph 89 % 0.00 in 0 W/m2
06:45 44.5 °F 41.5 °F 30.18 in NW 8.0 mph 29.0 mph 89 % 0.00 in 0 W/m2
06:50 44.4 °F 41.4 °F 30.18 in NW 8.0 mph 29.0 mph 89 % 0.00 in 0 W/m2
06:55 44.3 °F 41.3 °F 30.19 in WNW 8.0 mph 29.0 mph 89 % 0.00 in 0 W/m2
07:00 44.2 °F 40.9 °F 30.18 in NW 7.0 mph 7.0 mph 88 % 0.00 in 0 W/m2
07:05 44.1 °F 40.8 °F 30.18 in NW 6.0 mph 29.0 mph 88 % 0.00 in 0 W/m2
07:15 43.7 °F 40.4 °F 30.19 in NW 6.0 mph 29.0 mph 88 % 0.00 in 0 W/m2
07:25 43.5 °F 40.2 °F 30.19 in West 6.0 mph 29.0 mph 88 % 0.00 in 0 W/m2
07:30 43.5 °F 40.5 °F 30.19 in WNW 6.0 mph 29.0 mph 89 % 0.00 in 0 W/m2
07:35 43.7 °F 40.7 °F 30.19 in NW 6.0 mph 29.0 mph 89 % 0.00 in 0 W/m2
07:40 43.8 °F 40.5 °F 30.19 in NW 6.0 mph 6.0 mph 88 % 0.00 in 0 W/m2
07:50 43.8 °F 40.5 °F 30.20 in NW 3.0 mph 29.0 mph 88 % 0.00 in 0 W/m2
07:55 43.9 °F 40.6 °F 30.21 in North 4.0 mph 29.0 mph 88 % 0.00 in 0 W/m2
08:00 43.9 °F 40.3 °F 30.21 in NNW 4.0 mph 29.0 mph 87 % 0.00 in 0 W/m2
08:05 44.0 °F 40.4 °F 30.21 in NNW 3.0 mph 29.0 mph 87 % 0.00 in 0 W/m2
08:10 44.0 °F 40.4 °F 30.22 in NNW 2.0 mph 2.0 mph 87 % 0.00 in 0 W/m2
08:15 43.9 °F 40.3 °F 30.22 in NNE 2.0 mph 29.0 mph 87 % 0.00 in 0 W/m2
08:25 43.7 °F 39.2 °F 30.23 in NNW 5.0 mph 29.0 mph 84 % 0.00 in 0 W/m2
08:30 43.5 °F 38.7 °F 30.23 in NNE 7.0 mph 29.0 mph 83 % 0.00 in 0 W/m2
08:35 43.3 °F 38.5 °F 30.23 in NNE 9.0 mph 29.0 mph 83 % 0.00 in 0 W/m2
08:40 43.2 °F 38.1 °F 30.23 in North 8.0 mph 8.0 mph 82 % 0.00 in 7 W/m2
08:45 43.1 °F 38.3 °F 30.23 in North 6.0 mph 29.0 mph 83 % 0.00 in 7 W/m2
08:50 43.0 °F 38.2 °F 30.24 in North 5.0 mph 5.0 mph 83 % 0.00 in 11 W/m2
09:00 42.8 °F 37.7 °F 30.24 in NNE 7.0 mph 7.0 mph 82 % 0.00 in 23 W/m2
09:05 42.7 °F 37.6 °F 30.25 in NNE 6.0 mph 29.0 mph 82 % 0.00 in 14 W/m2
09:10 42.7 °F 37.6 °F 30.25 in NNE 6.0 mph 29.0 mph 82 % 0.00 in 18 W/m2
09:15 42.6 °F 37.5 °F 30.25 in NNE 5.0 mph 29.0 mph 82 % 0.00 in 25 W/m2
09:20 42.5 °F 37.1 °F 30.25 in NNE 4.0 mph 29.0 mph 81 % 0.00 in 42 W/m2
09:25 42.4 °F 37.0 °F 30.25 in NNE 4.0 mph 29.0 mph 81 % 0.00 in 25 W/m2
09:35 42.4 °F 37.0 °F 30.25 in North 4.0 mph 29.0 mph 81 % 0.00 in 28 W/m2
09:45 42.3 °F 36.6 °F 30.26 in NNW 2.0 mph 4.0 mph 80 % 0.00 in 28 W/m2
09:50 42.3 °F 36.6 °F 30.26 in NNW 2.0 mph 29.0 mph 80 % 0.00 in 30 W/m2
09:55 42.3 °F 36.6 °F 30.26 in ENE 2.0 mph 29.0 mph 80 % 0.00 in 30 W/m2
10:00 42.2 °F 36.5 °F 30.26 in NE 2.0 mph 29.0 mph 80 % 0.00 in 46 W/m2
10:05 42.3 °F 36.6 °F 30.27 in NNE 3.0 mph 29.0 mph 80 % 0.00 in 51 W/m2
10:10 42.3 °F 36.6 °F 30.27 in NNE 4.0 mph 29.0 mph 80 % 0.00 in 60 W/m2
10:20 42.3 °F 36.6 °F 30.27 in North 5.0 mph 29.0 mph 80 % 0.00 in 58 W/m2
10:25 42.3 °F 36.6 °F 30.27 in NNE 5.0 mph 29.0 mph 80 % 0.00 in 63 W/m2
10:30 42.4 °F 36.7 °F 30.27 in NNE 5.0 mph 29.0 mph 80 % 0.00 in 54 W/m2
10:35 42.4 °F 36.7 °F 30.27 in North 5.0 mph 29.0 mph 80 % 0.00 in 44 W/m2
10:40 42.4 °F 36.3 °F 30.28 in NNW 4.0 mph 29.0 mph 79 % 0.00 in 40 W/m2
10:45 42.4 °F 36.0 °F 30.28 in NNE 5.0 mph 29.0 mph 78 % 0.00 in 62 W/m2
10:50 42.2 °F 34.8 °F 30.28 in North 6.0 mph 6.0 mph 75 % 0.00 in 40 W/m2
11:00 41.9 °F 33.9 °F 30.28 in North 6.0 mph 29.0 mph 73 % 0.00 in 193 W/m2
11:05 41.9 °F 33.5 °F 30.29 in NNE 7.0 mph 29.0 mph 72 % 0.00 in 206 W/m2
11:10 42.2 °F 34.2 °F 30.29 in North 8.0 mph 8.0 mph 73 % 0.00 in 213 W/m2
11:15 42.5 °F 34.1 °F 30.29 in NNE 7.0 mph 29.0 mph 72 % 0.00 in 236 W/m2
11:20 42.7 °F 34.3 °F 30.29 in NNE 6.0 mph 29.0 mph 72 % 0.00 in 311 W/m2
11:25 43.0 °F 34.6 °F 30.29 in NNE 6.0 mph 29.0 mph 72 % 0.00 in 225 W/m2
11:35 43.2 °F 35.1 °F 30.29 in NNW 6.0 mph 29.0 mph 73 % 0.00 in 54 W/m2
11:40 43.0 °F 33.9 °F 30.29 in North 7.0 mph 29.0 mph 70 % 0.00 in 49 W/m2
11:45 42.6 °F 32.8 °F 30.30 in NNW 9.0 mph 29.0 mph 68 % 0.00 in 51 W/m2
11:50 42.4 °F 32.6 °F 30.30 in NNW 8.0 mph 8.0 mph 68 % 0.00 in 144 W/m2
11:55 42.4 °F 31.8 °F 30.30 in NNW 8.0 mph 10.0 mph 66 % 0.00 in 236 W/m2
12:00 42.6 °F 30.9 °F 30.30 in North 8.0 mph 8.0 mph 63 % 0.00 in 239 W/m2
12:05 42.8 °F 30.7 °F 30.30 in NNW 9.0 mph 12.0 mph 62 % 0.00 in 223 W/m2
12:10 43.0 °F 30.9 °F 30.31 in North 8.0 mph 8.0 mph 62 % 0.00 in 237 W/m2
12:20 43.0 °F 30.9 °F 30.31 in North 8.0 mph 8.0 mph 62 % 0.00 in 239 W/m2
12:30 43.4 °F 30.8 °F 30.30 in NNW 7.0 mph 29.0 mph 61 % 0.00 in 239 W/m2
12:35 43.4 °F 30.4 °F 30.30 in NNW 9.0 mph 29.0 mph 60 % 0.00 in 237 W/m2
12:40 43.5 °F 30.5 °F 30.30 in NW 8.0 mph 29.0 mph 60 % 0.00 in 243 W/m2
12:50 43.6 °F 30.2 °F 30.30 in NNW 9.0 mph 9.0 mph 59 % 0.00 in 236 W/m2
12:55 43.7 °F 30.3 °F 30.30 in NW 9.0 mph 29.0 mph 59 % 0.00 in 230 W/m2
13:00 43.7 °F 30.7 °F 30.30 in NNW 7.0 mph 29.0 mph 60 % 0.00 in 230 W/m2
13:05 43.8 °F 30.8 °F 30.30 in NNW 7.0 mph 29.0 mph 60 % 0.00 in 225 W/m2
13:10 43.8 °F 30.4 °F 30.30 in NNW 8.0 mph 8.0 mph 59 % 0.00 in 218 W/m2
13:15 43.8 °F 30.4 °F 30.30 in NNW 8.0 mph 29.0 mph 59 % 0.00 in 220 W/m2
13:25 43.8 °F 30.0 °F 30.31 in North 9.0 mph 29.0 mph 58 % 0.00 in 202 W/m2
13:30 43.7 °F 29.9 °F 30.31 in North 9.0 mph 9.0 mph 58 % 0.00 in 202 W/m2
13:35 43.6 °F 30.2 °F 30.31 in NW 9.0 mph 29.0 mph 59 % 0.00 in 197 W/m2
13:40 43.6 °F 30.2 °F 30.31 in NW 8.0 mph 8.0 mph 59 % 0.00 in 188 W/m2
13:45 43.8 °F 30.8 °F 30.31 in NW 7.0 mph 29.0 mph 60 % 0.00 in 183 W/m2
13:50 43.9 °F 30.5 °F 30.31 in NW 5.0 mph 29.0 mph 59 % 0.00 in 179 W/m2
14:00 44.0 °F 30.2 °F 30.31 in North 5.0 mph 29.0 mph 58 % 0.00 in 165 W/m2
14:05 43.9 °F 30.1 °F 30.31 in NW 5.0 mph 29.0 mph 58 % 0.00 in 158 W/m2
14:10 43.9 °F 29.6 °F 30.31 in NNW 5.0 mph 5.0 mph 57 % 0.00 in 153 W/m2
14:15 43.8 °F 30.0 °F 30.31 in NNW 5.0 mph 29.0 mph 58 % 0.00 in 141 W/m2
14:20 43.8 °F 30.4 °F 30.32 in NW 4.0 mph 29.0 mph 59 % 0.00 in 144 W/m2
14:25 43.8 °F 30.0 °F 30.32 in NNW 4.0 mph 29.0 mph 58 % 0.00 in 151 W/m2
14:35 43.6 °F 29.8 °F 30.32 in NNW 6.0 mph 29.0 mph 58 % 0.00 in 116 W/m2
14:40 43.5 °F 29.7 °F 30.32 in NNW 6.0 mph 29.0 mph 58 % 0.00 in 121 W/m2
14:45 43.3 °F 29.5 °F 30.32 in North 7.0 mph 29.0 mph 58 % 0.00 in 113 W/m2
14:50 43.1 °F 29.7 °F 30.32 in NNW 7.0 mph 7.0 mph 59 % 0.00 in 104 W/m2
14:55 42.9 °F 30.0 °F 30.32 in NNW 6.0 mph 29.0 mph 60 % 0.00 in 100 W/m2
15:05 42.7 °F 30.2 °F 30.32 in NNW 6.0 mph 29.0 mph 61 % 0.00 in 67 W/m2
15:10 42.5 °F 30.0 °F 30.32 in NNW 6.0 mph 29.0 mph 61 % 0.00 in 33 W/m2
15:15 42.3 °F 29.8 °F 30.32 in North 7.0 mph 29.0 mph 61 % 0.00 in 23 W/m2
15:20 42.1 °F 29.6 °F 30.33 in North 8.0 mph 29.0 mph 61 % 0.00 in 23 W/m2
15:25 41.8 °F 29.7 °F 30.33 in NNW 8.0 mph 29.0 mph 62 % 0.00 in 19 W/m2
15:30 41.6 °F 29.5 °F 30.33 in North 8.0 mph 29.0 mph 62 % 0.00 in 21 W/m2
15:35 41.4 °F 29.7 °F 30.33 in NW 7.0 mph 29.0 mph 63 % 0.00 in 18 W/m2
15:45 40.9 °F 29.7 °F 30.34 in NNW 6.0 mph 29.0 mph 64 % 0.00 in 11 W/m2
15:50 40.8 °F 29.6 °F 30.34 in NNE 7.0 mph 7.0 mph 64 % 0.00 in 7 W/m2
15:55 40.8 °F 29.9 °F 30.34 in NNW 6.0 mph 29.0 mph 65 % 0.00 in 5 W/m2
16:00 40.7 °F 29.8 °F 30.34 in NNW 6.0 mph 29.0 mph 65 % 0.00 in 0 W/m2
16:05 40.7 °F 29.8 °F 30.34 in NNW 6.0 mph 29.0 mph 65 % 0.00 in 0 W/m2
16:10 40.6 °F 29.7 °F 30.34 in NW 6.0 mph 29.0 mph 65 % 0.00 in 0 W/m2
16:20 40.3 °F 29.5 °F 30.35 in NNW 6.0 mph 29.0 mph 65 % 0.00 in 0 W/m2
16:25 40.2 °F 29.7 °F 30.35 in NNW 5.0 mph 29.0 mph 66 % 0.00 in 0 W/m2
16:30 40.0 °F 29.6 °F 30.35 in NW 5.0 mph 29.0 mph 66 % 0.00 in 0 W/m2
16:35 39.9 °F 29.5 °F 30.35 in NW 5.0 mph 29.0 mph 66 % 0.00 in 0 W/m2
16:40 39.7 °F 29.3 °F 30.36 in North 6.0 mph 29.0 mph 66 % 0.00 in 0 W/m2
16:45 39.6 °F 29.2 °F 30.35 in NNW 6.0 mph 29.0 mph 66 % 0.00 in 0 W/m2
16:50 39.6 °F 29.2 °F 30.35 in North 6.0 mph 29.0 mph 66 % 0.00 in 0 W/m2
17:00 39.6 °F 29.2 °F 30.35 in North 6.0 mph 6.0 mph 66 % 0.00 in 0 W/m2
17:05 39.6 °F 29.2 °F 30.35 in NNW 6.0 mph 11.0 mph 66 % 0.00 in 0 W/m2
17:10 39.6 °F 29.2 °F 30.36 in NNW 6.0 mph 29.0 mph 66 % 0.00 in 0 W/m2
17:15 39.6 °F 29.2 °F 30.36 in NW 7.0 mph 29.0 mph 66 % 0.00 in 0 W/m2
17:20 39.5 °F 29.1 °F 30.36 in NNW 6.0 mph 6.0 mph 66 % 0.00 in 0 W/m2
17:25 39.5 °F 29.1 °F 30.36 in NW 6.0 mph 29.0 mph 66 % 0.00 in 0 W/m2
17:30 39.4 °F 29.0 °F 30.36 in NNW 6.0 mph 29.0 mph 66 % 0.00 in 0 W/m2
17:35 39.4 °F 29.0 °F 30.37 in NW 7.0 mph 29.0 mph 66 % 0.00 in 0 W/m2
17:40 39.4 °F 29.0 °F 30.37 in NW 5.0 mph 29.0 mph 66 % 0.00 in 0 W/m2
17:50 39.1 °F 28.7 °F 30.37 in NNW 4.0 mph 29.0 mph 66 % 0.00 in 0 W/m2
17:55 39.0 °F 28.6 °F 30.37 in NNW 6.0 mph 29.0 mph 66 % 0.00 in 0 W/m2
18:00 39.0 °F 28.6 °F 30.37 in NW 7.0 mph 29.0 mph 66 % 0.00 in 0 W/m2
18:05 39.0 °F 28.6 °F 30.38 in NW 7.0 mph 29.0 mph 66 % 0.00 in 0 W/m2
18:10 38.9 °F 28.9 °F 30.38 in NNW 6.0 mph 29.0 mph 67 % 0.00 in 0 W/m2
18:15 38.8 °F 28.8 °F 30.38 in NNW 4.0 mph 29.0 mph 67 % 0.00 in 0 W/m2
18:25 38.7 °F 28.7 °F 30.38 in NNW 4.0 mph 29.0 mph 67 % 0.00 in 0 W/m2
18:30 38.6 °F 28.9 °F 30.38 in NNW 3.0 mph 3.0 mph 68 % 0.00 in 0 W/m2
18:35 38.4 °F 28.8 °F 30.38 in NNW 1.0 mph 29.0 mph 68 % 0.00 in 0 W/m2
18:40 38.3 °F 29.0 °F 30.39 in NW 1.0 mph 29.0 mph 69 % 0.00 in 0 W/m2
18:45 38.3 °F 29.4 °F 30.39 in NW 2.0 mph 29.0 mph 70 % 0.00 in 0 W/m2
18:50 38.2 °F 28.9 °F 30.39 in NW 2.0 mph 2.0 mph 69 % 0.00 in 0 W/m2
19:00 38.3 °F 29.4 °F 30.39 in NNW 2.0 mph 2.0 mph 70 % 0.00 in 0 W/m2
19:05 38.3 °F 29.4 °F 30.39 in NNW 2.0 mph 4.0 mph 70 % 0.00 in 0 W/m2
19:10 38.1 °F 29.2 °F 30.39 in WNW 2.0 mph 29.0 mph 70 % 0.00 in 0 W/m2
19:15 37.9 °F 29.3 °F 30.39 in WNW 3.0 mph 29.0 mph 71 % 0.00 in 0 W/m2
19:25 37.5 °F 29.3 °F 30.39 in WNW 2.0 mph 29.0 mph 72 % 0.00 in 0 W/m2
19:30 37.4 °F 29.5 °F 30.39 in WNW 2.0 mph 2.0 mph 73 % 0.00 in 0 W/m2
19:35 37.4 °F 29.5 °F 30.39 in WNW 2.0 mph 29.0 mph 73 % 0.00 in 0 W/m2
19:40 37.4 °F 29.5 °F 30.40 in WNW 1.0 mph 1.0 mph 73 % 0.00 in 0 W/m2
19:45 37.4 °F 29.9 °F 30.40 in WNW 1.0 mph 2.0 mph 74 % 0.00 in 0 W/m2
19:50 37.5 °F 30.0 °F 30.40 in WNW 2.0 mph 29.0 mph 74 % 0.00 in 0 W/m2
20:00 37.5 °F 30.0 °F 30.40 in NNW 2.0 mph 29.0 mph 74 % 0.00 in 0 W/m2
20:05 37.6 °F 29.7 °F 30.40 in NNW 2.0 mph 29.0 mph 73 % 0.00 in 0 W/m2
20:10 37.6 °F 29.7 °F 30.40 in NNW 2.0 mph 2.0 mph 73 % 0.00 in 0 W/m2
20:15 37.5 °F 30.0 °F 30.40 in NNW 2.0 mph 29.0 mph 74 % 0.00 in 0 W/m2
20:20 37.4 °F 29.9 °F 30.40 in NNW 2.0 mph 29.0 mph 74 % 0.00 in 0 W/m2
20:25 37.4 °F 30.2 °F 30.41 in WNW 3.0 mph 29.0 mph 75 % 0.00 in 0 W/m2
20:35 37.2 °F 30.0 °F 30.41 in WNW 3.0 mph 5.0 mph 75 % 0.00 in 0 W/m2
20:40 37.3 °F 30.1 °F 30.41 in NW 4.0 mph 29.0 mph 75 % 0.00 in 0 W/m2
20:45 37.4 °F 30.2 °F 30.42 in NW 4.0 mph 29.0 mph 75 % 0.00 in 0 W/m2
20:50 37.4 °F 30.2 °F 30.41 in NW 4.0 mph 29.0 mph 75 % 0.00 in 0 W/m2
20:55 37.5 °F 30.0 °F 30.41 in WNW 4.0 mph 29.0 mph 74 % 0.00 in 0 W/m2
21:00 37.6 °F 30.1 °F 30.42 in NW 4.0 mph 29.0 mph 74 % 0.00 in 0 W/m2
21:10 37.8 °F 29.9 °F 30.42 in NW 5.0 mph 5.0 mph 73 % 0.00 in 0 W/m2
21:20 37.9 °F 30.0 °F 30.42 in NW 3.0 mph 3.0 mph 73 % 0.00 in 0 W/m2
21:25 38.0 °F 30.1 °F 30.43 in NW 3.0 mph 5.0 mph 73 % 0.00 in 0 W/m2
21:30 38.0 °F 30.1 °F 30.43 in NW 4.0 mph 29.0 mph 73 % 0.00 in 0 W/m2
21:35 38.0 °F 30.1 °F 30.43 in NW 5.0 mph 29.0 mph 73 % 0.00 in 0 W/m2
21:45 38.0 °F 30.1 °F 30.43 in WNW 3.0 mph 9.0 mph 73 % 0.00 in 0 W/m2
21:50 37.9 °F 30.0 °F 30.43 in NW 4.0 mph 29.0 mph 73 % 0.00 in 0 W/m2
21:55 37.7 °F 29.8 °F 30.43 in NW 4.0 mph 29.0 mph 73 % 0.00 in 0 W/m2
22:00 37.5 °F 29.6 °F 30.43 in NW 4.0 mph 4.0 mph 73 % 0.00 in 0 W/m2
22:05 37.3 °F 29.4 °F 30.43 in NW 4.0 mph 29.0 mph 73 % 0.00 in 0 W/m2
22:10 37.1 °F 29.2 °F 30.43 in NW 4.0 mph 29.0 mph 73 % 0.00 in 0 W/m2
22:20 36.8 °F 29.3 °F 30.44 in NW 4.0 mph 29.0 mph 74 % 0.00 in 0 W/m2
22:25 36.7 °F 29.2 °F 30.44 in NW 4.0 mph 29.0 mph 74 % 0.00 in 0 W/m2
22:30 36.6 °F 29.4 °F 30.44 in NW 4.0 mph 4.0 mph 75 % 0.00 in 0 W/m2
22:35 36.6 °F 29.4 °F 30.44 in NW 4.0 mph 29.0 mph 75 % 0.00 in 0 W/m2
22:40 36.6 °F 29.4 °F 30.44 in NNW 3.0 mph 3.0 mph 75 % 0.00 in 0 W/m2
23:15 37.0 °F 29.5 °F 30.44 in NW 4.0 mph 29.0 mph 74 % 0.00 in 0 W/m2
23:20 36.9 °F 29.4 °F 30.45 in NW 3.0 mph 3.0 mph 74 % 0.00 in 0 W/m2
23:25 36.7 °F 29.2 °F 30.45 in NW 3.0 mph 29.0 mph 74 % 0.00 in 0 W/m2
23:30 36.5 °F 29.0 °F 30.45 in NW 3.0 mph 3.0 mph 74 % 0.00 in 0 W/m2
23:35 36.3 °F 29.1 °F 30.45 in NW 4.0 mph 4.0 mph 75 % 0.00 in 0 W/m2
23:45 36.0 °F 28.8 °F 30.46 in NW 3.0 mph 29.0 mph 75 % 0.00 in 0 W/m2
23:55 35.7 °F 28.9 °F 30.46 in NW 5.0 mph 29.0 mph 76 % 0.00 in 0 W/m2
Delerius-Weather
Compliments of Weather Underground - 2 mb

Data updates at regular intervals.